< < Back
Terminal Aerodrome Forecast


Current Version              Previous Versions:   1  2  3  4  5  6  7  8  9  

Terminal Aerodrome Forecast

160
FTUS42 KFFC 272320
TAFMCN
TAF
KMCN 272320Z 2800/2824 13003KT P6SM FEW250
     FM281200 09004KT P6SM SKC
     FM281700 09006KT P6SM FEW050=

Latest METAR

932
SAUS80 KWBC 290200 RRA
MTRMCN
METAR KMCN 290153Z AUTO 07007KT 10SM CLR 24/18 A3009 RMK AO2 SLP183
T02440183 TSNO


USA.gov is the U.S. government's official web portal to all federal, state and local government web resources and services.